Time;durP1;ratioP1;P1;durP2;ratioP2;P2;SDS_P1;SDS_P2;PMS_P1;PMS_P2;Temp;Humidity;BMP_temperature;BMP_pressure;BME280_temperature;BME280_humidity;BME280_pressure;Samples;Min_cycle;Max_cycle;Signal;HPM_P1;HPM_P2
2024/03/20 00:00:17;;;;;;;51.60;27.00;;;;;;;-3.03;55.83;101668.34;103972;1301;24432;-59
2024/03/20 00:02:43;;;;;;;49.00;26.40;;;;;;;-3.00;56.00;101671.23;103926;1318;22676;-59
2024/03/20 00:05:08;;;;;;;48.70;26.80;;;;;;;-2.99;55.48;101669.27;103841;1318;22569;-58
2024/03/20 00:07:34;;;;;;;54.00;27.40;;;;;;;-2.96;55.80;101674.46;103909;1318;24267;-58
2024/03/20 00:09:59;;;;;;;53.70;27.60;;;;;;;-2.94;56.65;101676.79;103745;1300;22709;-59
2024/03/20 00:12:25;;;;;;;51.20;27.80;;;;;;;-2.94;56.27;101674.92;103906;1318;23117;-59
2024/03/20 00:14:52;;;;;;;49.20;25.30;;;;;;;-2.92;56.53;101671.33;103934;1318;24374;-58
2024/03/20 00:17:17;;;;;;;49.60;26.20;;;;;;;-2.91;57.15;101675.42;103927;1317;22529;-59
2024/03/20 00:19:43;;;;;;;48.20;25.40;;;;;;;-2.90;56.70;101672.77;103723;1312;27776;-59
2024/03/20 00:22:08;;;;;;;50.80;27.00;;;;;;;-2.91;56.84;101670.02;103886;1318;22998;-57
2024/03/20 00:24:34;;;;;;;45.20;24.70;;;;;;;-2.93;56.35;101668.75;103983;1318;24264;-58
2024/03/20 00:27:00;;;;;;;42.90;24.70;;;;;;;-2.95;56.20;101666.26;103934;1318;24784;-59
2024/03/20 00:29:27;;;;;;;42.50;23.50;;;;;;;-3.00;55.90;101664.81;103889;1318;22720;-58
2024/03/20 00:31:54;;;;;;;43.80;23.30;;;;;;;-3.02;56.23;101666.05;103853;1308;22684;-57
2024/03/20 00:34:20;;;;;;;49.20;25.70;;;;;;;-3.03;56.38;101665.86;103819;1318;22590;-59
2024/03/20 00:36:46;;;;;;;48.10;23.50;;;;;;;-3.04;56.55;101659.06;103853;1318;24258;-58
2024/03/20 00:39:11;;;;;;;49.20;24.20;;;;;;;-3.06;56.30;101657.89;103875;1318;25455;-58
2024/03/20 00:41:36;;;;;;;48.90;23.40;;;;;;;-3.13;56.38;101656.55;103823;1300;24806;-59
2024/03/20 00:44:02;;;;;;;44.70;23.70;;;;;;;-3.18;56.14;101656.71;103874;1318;22591;-58
2024/03/20 00:46:27;;;;;;;46.30;24.60;;;;;;;-3.23;56.17;101649.20;103854;1318;23310;-59
2024/03/20 00:48:52;;;;;;;42.80;23.30;;;;;;;-3.27;56.52;101650.50;104122;1318;22685;-57
2024/03/20 00:51:18;;;;;;;50.50;23.70;;;;;;;-3.31;56.63;101644.05;106416;1314;22608;-58
2024/03/20 00:53:43;;;;;;;52.00;25.40;;;;;;;-3.32;56.72;101641.80;106314;1316;22870;-58
2024/03/20 00:56:08;;;;;;;45.80;24.20;;;;;;;-3.29;56.77;101642.42;106451;1313;22649;-58
2024/03/20 00:58:34;;;;;;;41.30;23.10;;;;;;;-3.27;56.37;101645.11;106517;1318;22609;-59
2024/03/20 01:00:59;;;;;;;41.70;22.50;;;;;;;-3.24;56.60;101646.14;106401;1296;22826;-59
2024/03/20 01:03:24;;;;;;;48.40;23.70;;;;;;;-3.24;56.60;101644.63;106378;1312;22928;-57
2024/03/20 01:05:50;;;;;;;50.40;24.00;;;;;;;-3.26;56.82;101639.29;106398;1317;22589;-56
2024/03/20 01:08:16;;;;;;;50.00;24.80;;;;;;;-3.27;56.66;101639.86;106405;1313;22661;-58
2024/03/20 01:10:41;;;;;;;45.00;24.00;;;;;;;-3.27;56.78;101634.83;106376;1311;22613;-57
2024/03/20 01:13:07;;;;;;;42.20;24.00;;;;;;;-3.24;56.91;101632.98;106439;1304;21958;-58
2024/03/20 01:15:35;;;;;;;42.00;23.40;;;;;;;-3.21;56.55;101628.26;106355;1310;22619;-57
2024/03/20 01:18:01;;;;;;;43.80;23.30;;;;;;;-3.16;56.72;101628.66;106462;1318;22598;-56
2024/03/20 01:20:27;;;;;;;32.20;17.00;;;;;;;-3.15;57.33;101625.40;106468;1318;22536;-56
2024/03/20 01:22:52;;;;;;;47.30;24.00;;;;;;;-3.14;57.53;101623.44;106408;1299;22672;-57
2024/03/20 01:25:18;;;;;;;38.80;21.10;;;;;;;-3.14;57.29;101616.31;106408;1318;22616;-57
2024/03/20 01:27:45;;;;;;;39.40;22.40;;;;;;;-3.15;57.09;101618.12;106386;1318;22620;-57
2024/03/20 01:30:13;;;;;;;42.20;22.70;;;;;;;-3.14;56.93;101618.70;106413;1318;23842;-58
2024/03/20 01:32:38;;;;;;;38.10;21.60;;;;;;;-3.11;58.65;101619.34;106417;1299;23028;-59
2024/03/20 01:35:05;;;;;;;38.70;22.20;;;;;;;-3.09;61.71;101620.30;106463;1318;22674;-56
2024/03/20 01:37:30;;;;;;;38.10;21.00;;;;;;;-3.07;59.06;101616.20;106415;1318;22762;-56
2024/03/20 01:39:56;;;;;;;40.10;21.80;;;;;;;-3.07;58.04;101612.77;106378;1318;25456;-56
2024/03/20 01:42:22;;;;;;;37.10;21.10;;;;;;;-3.11;57.73;101609.89;106434;1300;22232;-54
2024/03/20 01:44:47;;;;;;;38.40;20.90;;;;;;;-3.15;57.72;101611.59;106350;1318;22897;-56
2024/03/20 01:47:12;;;;;;;37.70;20.70;;;;;;;-3.14;57.90;101609.92;106399;1313;22611;-55
2024/03/20 01:49:38;;;;;;;37.50;21.40;;;;;;;-3.14;57.29;101610.25;106383;1318;22848;-56
2024/03/20 01:52:05;;;;;;;37.50;21.50;;;;;;;-3.14;57.66;101612.98;106409;1294;22599;-56
2024/03/20 01:54:33;;;;;;;41.10;22.40;;;;;;;-3.14;57.73;101617.02;106430;1318;23717;-56
2024/03/20 01:56:58;;;;;;;;;;;;;;;-3.13;57.73;101618.09;106393;1318;22605;-55
2024/03/20 01:59:23;;;;;;;38.80;21.00;;;;;;;-3.11;58.41;101616.46;105710;1318;22533;-60
2024/03/20 02:01:49;;;;;;;40.30;21.40;;;;;;;-3.11;58.09;101618.69;103852;1318;22822;-58
2024/03/20 02:04:14;;;;;;;39.30;20.50;;;;;;;-3.13;57.84;101615.71;103732;1298;22545;-58
2024/03/20 02:06:40;;;;;;;39.70;21.10;;;;;;;-3.18;57.70;101611.40;103702;1318;22690;-58
2024/03/20 02:09:05;;;;;;;43.40;23.10;;;;;;;-3.21;57.70;101610.86;103841;1318;22568;-59
2024/03/20 02:11:31;;;;;;;42.90;21.80;;;;;;;-3.26;58.00;101607.89;103769;1318;22729;-59
2024/03/20 02:13:58;;;;;;;40.30;23.00;;;;;;;-3.31;57.98;101603.71;103799;1300;22758;-58
2024/03/20 02:16:25;;;;;;;38.30;21.60;;;;;;;-3.33;57.91;101600.61;103840;1313;22569;-60
2024/03/20 02:18:51;;;;;;;43.70;21.80;;;;;;;-3.34;58.23;101596.88;103998;1318;22593;-59
2024/03/20 02:21:25;;;;;;;;;;;;;;;-3.35;58.09;101592.73;103900;1318;25541;-59
2024/03/20 02:23:52;;;;;;;39.90;21.70;;;;;;;-3.35;58.24;101592.96;103832;1311;25457;-58
2024/03/20 02:26:17;;;;;;;34.50;20.20;;;;;;;-3.37;58.20;101593.33;103827;1318;22517;-58
2024/03/20 02:28:44;;;;;;;32.10;17.20;;;;;;;-3.39;58.28;101590.99;103858;1318;22521;-59
2024/03/20 02:31:14;;;;;;;41.90;22.20;;;;;;;-3.42;58.46;101590.35;103872;1316;22831;-58
2024/03/20 02:33:40;;;;;;;37.90;21.20;;;;;;;-3.45;58.40;101585.79;103873;1300;22763;-58
2024/03/20 02:36:06;;;;;;;41.40;22.30;;;;;;;-3.48;58.19;101582.23;103884;1310;23655;-58
2024/03/20 02:38:37;;;;;;;38.70;21.50;;;;;;;-3.50;61.70;101581.80;103878;1318;22587;-58
2024/03/20 02:41:03;;;;;;;41.10;21.40;;;;;;;-3.51;59.65;101582.90;103902;1318;24277;-59
2024/03/20 02:43:29;;;;;;;35.70;21.60;;;;;;;-3.53;59.27;101582.64;103773;1297;22925;-59
2024/03/20 02:45:55;;;;;;;39.30;21.80;;;;;;;-3.54;58.87;101582.73;103786;1318;24353;-60
2024/03/20 02:48:20;;;;;;;38.30;20.80;;;;;;;-3.55;59.81;101584.85;103698;1297;26551;-60
2024/03/20 02:50:46;;;;;;;43.90;23.00;;;;;;;-3.55;59.99;101589.41;103845;1314;24286;-60
2024/03/20 02:53:11;;;;;;;43.80;22.00;;;;;;;-3.54;60.20;101590.83;103771;1318;22828;-60
2024/03/20 02:55:43;;;;;;;38.60;22.20;;;;;;;-3.53;59.47;101593.58;103890;1312;24265;-60
2024/03/20 02:58:09;;;;;;;47.70;23.50;;;;;;;-3.54;59.41;101587.09;103852;1310;26552;-60
2024/03/20 03:00:35;;;;;;;37.70;19.80;;;;;;;-3.55;58.99;101592.30;103769;1318;22699;-59
2024/03/20 03:03:00;;;;;;;46.30;21.00;;;;;;;-3.59;61.97;101599.14;103829;1318;22665;-58
2024/03/20 03:05:27;;;;;;;38.80;21.00;;;;;;;-3.62;60.02;101604.15;103795;1300;24454;-58
2024/03/20 03:07:52;;;;;;;;;;;;;;;-3.64;59.66;101603.08;103838;1315;25551;-60
2024/03/20 03:10:19;;;;;;;;;;;;;;;-3.65;59.79;101598.83;104244;1314;22687;-58
2024/03/20 03:12:44;;;;;;;;;;;;;;;-3.66;60.22;101596.41;104198;1318;22558;-58
2024/03/20 03:15:10;;;;;;;32.60;17.80;;;;;;;-3.67;60.00;101594.34;104209;1300;22645;-58
2024/03/20 03:17:37;;;;;;;40.40;22.10;;;;;;;-3.71;59.32;101594.77;104198;1318;22576;-58
2024/03/20 03:20:21;;;;;;;43.70;22.20;;;;;;;-3.75;59.38;101594.20;104259;1297;22574;-59
2024/03/20 03:22:47;;;;;;;43.20;22.10;;;;;;;-3.76;59.49;101594.80;104216;1313;22930;-59
2024/03/20 03:25:13;;;;;;;45.40;23.10;;;;;;;-3.77;59.26;101593.23;104322;1299;23121;-59
2024/03/20 03:27:39;;;;;;;44.20;23.40;;;;;;;-3.80;59.51;101589.87;104364;1310;24265;-59
2024/03/20 03:30:07;;;;;;;;;;;;;;;-3.80;59.39;101589.86;104629;1318;22510;-59
2024/03/20 03:32:33;;;;;;;41.40;22.20;;;;;;;-3.80;60.07;101586.68;104832;1316;22603;-59
2024/03/20 03:34:58;;;;;;;39.10;21.90;;;;;;;-3.79;59.53;101587.55;104438;1308;24398;-58
2024/03/20 03:37:24;;;;;;;41.90;22.70;;;;;;;-3.77;59.82;101588.00;105833;1316;22976;-57
2024/03/20 03:39:53;;;;;;;43.30;23.30;;;;;;;-3.79;59.66;101585.38;104108;1312;25752;-59
2024/03/20 03:42:19;;;;;;;40.30;22.40;;;;;;;-3.77;59.47;101588.02;104155;1316;24247;-59
2024/03/20 03:44:45;;;;;;;43.80;22.60;;;;;;;-3.72;60.54;101586.79;104142;1300;22596;-59
2024/03/20 03:47:11;;;;;;;40.70;22.80;;;;;;;-3.67;60.10;101587.27;104186;1318;22603;-59
2024/03/20 03:49:36;;;;;;;46.20;22.50;;;;;;;-3.65;60.55;101588.88;104171;1317;22520;-58
2024/03/20 03:52:02;;;;;;;40.60;23.50;;;;;;;-3.62;60.27;101594.60;104254;1317;22789;-58
2024/03/20 03:54:27;;;;;;;47.60;24.30;;;;;;;-3.56;60.68;101601.67;104160;1310;23177;-58
2024/03/20 03:56:53;;;;;;;44.70;24.80;;;;;;;-3.52;60.67;101603.23;104171;1318;22686;-58
2024/03/20 03:59:18;;;;;;;45.60;27.10;;;;;;;-3.52;60.64;101601.20;104129;1318;22532;-58
2024/03/20 04:01:46;;;;;;;41.90;20.80;;;;;;;-3.51;60.54;101601.77;104197;1318;22566;-58
2024/03/20 04:04:11;;;;;;;47.90;27.10;;;;;;;-3.47;60.62;101603.54;104227;1312;24395;-57
2024/03/20 04:06:37;;;;;;;37.70;20.80;;;;;;;-3.46;60.07;101605.59;104074;1300;22615;-59
2024/03/20 04:09:02;;;;;;;42.60;21.50;;;;;;;-3.51;59.59;101612.23;104142;1319;22591;-59
2024/03/20 04:11:27;;;;;;;42.40;21.30;;;;;;;-3.56;59.61;101613.15;104151;1313;22555;-59
2024/03/20 04:13:53;;;;;;;40.70;21.30;;;;;;;-3.59;59.69;101617.16;104214;1319;25414;-59
2024/03/20 04:16:18;;;;;;;40.40;20.70;;;;;;;-3.62;59.75;101615.30;104218;1308;25761;-58
2024/03/20 04:18:45;;;;;;;43.60;22.80;;;;;;;-3.63;59.70;101615.42;104243;1310;22568;-59
2024/03/20 04:21:11;;;;;;;41.80;23.40;;;;;;;-3.63;60.07;101609.67;104382;1310;22519;-59
2024/03/20 04:23:37;;;;;;;44.30;23.80;;;;;;;-3.62;60.48;101609.59;104218;1318;22596;-58
2024/03/20 04:26:02;;;;;;;41.50;22.90;;;;;;;-3.58;60.40;101611.30;104132;1313;22818;-59
2024/03/20 04:28:27;;;;;;;45.90;25.20;;;;;;;-3.54;60.10;101604.13;104110;1313;26561;-59
2024/03/20 04:30:53;;;;;;;45.30;23.80;;;;;;;-3.48;60.60;101601.30;104068;1318;22566;-58
2024/03/20 04:33:18;;;;;;;49.20;25.80;;;;;;;-3.41;60.37;101596.94;104160;1318;22533;-59
2024/03/20 04:35:44;;;;;;;43.90;25.20;;;;;;;-3.36;60.46;101594.56;104525;1296;22691;-58
2024/03/20 04:38:09;;;;;;;46.30;26.30;;;;;;;-3.31;60.49;101590.11;105615;1316;25420;-58
2024/03/20 04:40:35;;;;;;;44.80;25.20;;;;;;;-3.27;60.68;101589.11;104161;1318;22573;-58
2024/03/20 04:43:00;;;;;;;35.70;19.10;;;;;;;-3.23;60.80;101588.20;104113;1310;25293;-58
2024/03/20 04:45:26;;;;;;;50.90;26.20;;;;;;;-3.16;61.29;101590.27;104031;1296;22570;-58
2024/03/20 04:47:52;;;;;;;53.20;26.90;;;;;;;-3.05;61.02;101588.81;104062;1318;22575;-58
2024/03/20 04:50:17;;;;;;;46.30;25.30;;;;;;;-2.97;61.19;101585.02;103945;1319;22570;-59
2024/03/20 04:52:42;;;;;;;44.70;25.60;;;;;;;-2.91;60.97;101588.88;104189;1317;24045;-59
2024/03/20 04:55:08;;;;;;;49.50;26.30;;;;;;;-2.84;61.04;101589.96;103987;1318;22712;-59
2024/03/20 04:57:34;;;;;;;53.60;26.70;;;;;;;-2.76;61.18;101592.73;104028;1300;22670;-58
2024/03/20 04:59:59;;;;;;;48.00;25.90;;;;;;;-2.69;61.13;101598.67;104055;1312;24292;-60
2024/03/20 05:02:25;;;;;;;55.80;28.00;;;;;;;-2.62;61.20;101604.60;104091;1313;22570;-59
2024/03/20 05:04:51;;;;;;;54.50;27.80;;;;;;;-2.57;61.34;101605.88;104097;1318;22583;-59
2024/03/20 05:07:16;;;;;;;46.40;24.90;;;;;;;-2.52;60.95;101602.92;104003;1310;26080;-60
2024/03/20 05:09:42;;;;;;;47.20;25.20;;;;;;;-2.47;60.64;101602.21;104022;1318;22595;-60
2024/03/20 05:12:07;;;;;;;44.30;24.80;;;;;;;-2.43;60.99;101601.56;104023;1313;22582;-59
2024/03/20 05:14:32;;;;;;;52.80;27.40;;;;;;;-2.38;61.07;101604.02;104058;1318;22632;-60
2024/03/20 05:17:00;;;;;;;45.60;26.00;;;;;;;-2.32;60.92;101599.58;104104;1300;22570;-59
2024/03/20 05:19:29;;;;;;;44.90;25.60;;;;;;;-2.26;60.88;101596.36;104042;1318;22680;-57
2024/03/20 05:21:54;;;;;;;57.60;28.40;;;;;;;-2.20;60.91;101590.92;104139;1318;23155;-58
2024/03/20 05:24:20;;;;;;;50.00;27.10;;;;;;;-2.14;61.44;101592.60;104159;1313;24259;-59
2024/03/20 05:26:45;;;;;;;50.10;26.70;;;;;;;-2.08;61.78;101590.35;104127;1295;23002;-59
2024/03/20 05:29:12;;;;;;;47.60;26.20;;;;;;;-2.02;61.45;101592.84;104138;1312;22603;-58
2024/03/20 05:31:38;;;;;;;50.70;27.90;;;;;;;-1.96;61.54;101587.36;104456;1303;22598;-60
2024/03/20 05:34:04;;;;;;;52.40;28.90;;;;;;;-1.90;61.71;101576.85;103072;1316;25782;-59
2024/03/20 05:36:29;;;;;;;54.70;28.20;;;;;;;-1.84;61.42;101575.81;103149;1317;22805;-60
2024/03/20 05:38:55;;;;;;;53.30;29.00;;;;;;;-1.78;61.41;101571.39;103074;1318;23744;-60
2024/03/20 05:41:20;;;;;;;51.20;27.00;;;;;;;-1.71;61.83;101572.05;102918;1303;207056;-59
2024/03/20 05:43:46;;;;;;;57.20;29.50;;;;;;;-1.66;63.40;101574.17;103110;1294;22643;-59
2024/03/20 05:46:13;;;;;;;54.30;28.80;;;;;;;-1.61;62.00;101578.98;103040;1310;22829;-59
2024/03/20 05:48:39;;;;;;;51.60;27.80;;;;;;;-1.53;62.12;101583.89;105139;1294;24267;-57
2024/03/20 05:51:06;;;;;;;59.30;31.30;;;;;;;-1.43;61.99;101577.27;103253;1310;22710;-57
2024/03/20 05:53:32;;;;;;;60.00;29.80;;;;;;;-1.34;63.28;101586.70;106293;1310;22582;-55
2024/03/20 05:55:58;;;;;;;62.10;33.70;;;;;;;-1.25;62.05;101587.61;102974;1317;22689;-59
2024/03/20 05:58:24;;;;;;;61.00;32.50;;;;;;;-1.14;62.00;101589.16;103133;1300;22684;-60
2024/03/20 06:00:49;;;;;;;69.80;33.90;;;;;;;-1.01;62.19;101589.25;103206;1310;22611;-60
2024/03/20 06:03:15;;;;;;;62.60;32.40;;;;;;;-0.86;62.13;101593.96;103020;1316;22569;-58
2024/03/20 06:05:40;;;;;;;64.80;35.30;;;;;;;-0.71;62.19;101601.11;103052;1306;22601;-58
2024/03/20 06:08:06;;;;;;;55.50;31.50;;;;;;;-0.56;63.55;101598.70;103161;1310;24284;-59
2024/03/20 06:10:32;;;;;;;66.40;35.00;;;;;;;-0.48;62.74;101599.40;106894;1317;22344;-56
2024/03/20 06:12:58;;;;;;;68.20;36.50;;;;;;;-0.37;62.22;101598.68;104918;1317;22564;-61
2024/03/20 06:15:23;;;;;;;64.50;32.80;;;;;;;-0.25;62.19;101597.86;103203;1317;25373;-59
2024/03/20 06:17:48;;;;;;;59.60;33.10;;;;;;;-0.14;62.21;101598.00;103157;1301;22586;-61
2024/03/20 06:20:15;;;;;;;69.70;34.50;;;;;;;-0.01;62.86;101598.07;103135;1303;25759;-58
2024/03/20 06:22:40;;;;;;;57.50;32.00;;;;;;;0.12;62.70;101595.89;103138;1310;22673;-59
2024/03/20 06:25:07;;;;;;;54.00;31.30;;;;;;;0.25;62.64;101596.93;103245;1317;22573;-60
2024/03/20 06:27:34;;;;;;;66.50;35.60;;;;;;;0.35;63.53;101598.71;103712;1297;24094;-60
2024/03/20 06:29:59;;;;;;;64.20;35.90;;;;;;;0.45;62.54;101599.12;103061;1303;22656;-58
2024/03/20 06:32:25;;;;;;;63.00;35.20;;;;;;;0.57;62.71;101595.70;102978;1307;22713;-58
2024/03/20 06:34:51;;;;;;;61.50;33.50;;;;;;;0.73;63.08;101597.17;102955;1317;22701;-59
2024/03/20 06:37:17;;;;;;;63.80;34.40;;;;;;;0.88;62.95;101598.10;103210;1310;22676;-59
2024/03/20 06:39:42;;;;;;;63.90;37.20;;;;;;;1.01;63.13;101595.87;103175;1310;25548;-59
2024/03/20 06:42:16;;;;;;;71.40;41.80;;;;;;;1.17;62.77;101596.13;103190;1294;22572;-57
2024/03/20 06:44:41;;;;;;;75.10;40.20;;;;;;;1.37;63.37;101597.05;103052;1316;26295;-58
2024/03/20 06:47:06;;;;;;;70.90;38.70;;;;;;;1.57;62.92;101591.49;103258;1310;22592;-57
2024/03/20 06:49:33;;;;;;;67.20;41.10;;;;;;;1.86;62.98;101593.72;103280;1310;24218;-58
2024/03/20 06:51:59;;;;;;;65.50;38.70;;;;;;;2.19;62.95;101595.85;103368;1310;22832;-58
2024/03/20 06:54:26;;;;;;;73.30;42.50;;;;;;;2.48;64.06;101595.80;103236;1310;22599;-58
2024/03/20 06:56:58;;;;;;;62.30;37.50;;;;;;;2.66;63.36;101594.99;103246;1317;22566;-58
2024/03/20 06:59:24;;;;;;;57.60;36.80;;;;;;;2.96;63.44;101589.09;103651;1299;22613;-57
2024/03/20 07:01:50;;;;;;;55.70;34.80;;;;;;;3.14;63.54;101589.13;103859;1294;22686;-58
2024/03/20 07:04:15;;;;;;;57.80;36.20;;;;;;;3.25;63.31;101590.64;103956;1317;22572;-59
2024/03/20 07:06:41;;;;;;;59.40;36.10;;;;;;;3.47;63.45;101589.92;103845;1310;22681;-58
2024/03/20 07:09:08;;;;;;;59.30;36.10;;;;;;;3.68;63.68;101593.06;103527;1310;23861;-58
2024/03/20 07:11:34;;;;;;;60.20;34.80;;;;;;;3.87;63.77;101595.09;103559;1309;24006;-59
2024/03/20 07:13:59;;;;;;;57.20;35.40;;;;;;;4.02;64.00;101591.77;103598;1317;22567;-58
2024/03/20 07:16:26;;;;;;;63.10;38.80;;;;;;;4.15;64.16;101592.94;103589;1318;22992;-58
2024/03/20 07:18:52;;;;;;;54.30;36.80;;;;;;;4.21;64.98;101595.30;103497;1309;226097;-58
2024/03/20 07:21:20;;;;;;;53.40;35.60;;;;;;;4.40;64.47;101595.27;103989;1310;22655;-57
2024/03/20 07:23:46;;;;;;;55.10;37.30;;;;;;;4.83;64.65;101598.33;103882;1310;22667;-57
2024/03/20 07:26:11;;;;;;;53.10;36.20;;;;;;;5.15;64.08;101603.65;104079;1310;24403;-57
2024/03/20 07:28:38;;;;;;;50.60;36.10;;;;;;;5.55;64.36;101606.55;104028;1294;24344;-57
2024/03/20 07:31:05;;;;;;;73.30;37.40;;;;;;;6.05;64.29;101602.04;104067;1315;22583;-58
2024/03/20 07:33:31;;;;;;;148.40;41.90;;;;;;;6.52;64.04;101597.52;104367;1310;22949;-58
2024/03/20 07:35:56;;;;;;;76.70;37.20;;;;;;;7.00;63.99;101589.16;104192;1310;22595;-59
2024/03/20 07:38:21;;;;;;;272.70;42.00;;;;;;;7.46;63.91;101590.95;104033;1317;22676;-57
2024/03/20 07:40:53;;;;;;;278.60;45.70;;;;;;;8.06;64.54;101595.21;104034;1299;25633;-57
2024/03/20 07:43:21;;;;;;;439.40;53.70;;;;;;;8.62;63.84;101594.00;104065;1312;22573;-57
2024/03/20 07:45:47;;;;;;;654.30;57.60;;;;;;;9.21;63.84;101595.04;104295;1310;22570;-56
2024/03/20 07:48:12;;;;;;;420.10;52.00;;;;;;;9.83;62.08;101598.37;104423;1317;22591;-57
2024/03/20 07:50:39;;;;;;;445.60;51.40;;;;;;;10.46;60.28;101600.55;104592;1310;26548;-56
2024/03/20 07:53:05;;;;;;;290.00;46.20;;;;;;;10.89;61.02;101595.67;104510;1317;22528;-58
2024/03/20 07:55:32;;;;;;;309.80;47.60;;;;;;;10.96;59.76;101594.95;104782;1316;22603;-57
2024/03/20 07:57:58;;;;;;;198.50;42.40;;;;;;;10.92;61.68;101593.24;104556;1302;22557;-58
2024/03/20 08:00:28;;;;;;;237.90;43.00;;;;;;;10.79;62.08;101591.90;104311;1300;24309;-57
2024/03/20 08:02:56;;;;;;;411.00;50.10;;;;;;;11.42;61.00;101591.36;104651;1315;22509;-58
2024/03/20 08:05:27;;;;;;;248.20;41.70;;;;;;;12.07;58.88;101590.16;104872;1318;23587;-58
2024/03/20 08:07:55;;;;;;;408.70;51.60;;;;;;;12.53;60.03;101587.03;104171;1310;22771;-56
2024/03/20 08:10:22;;;;;;;364.90;51.50;;;;;;;13.24;59.27;101585.27;103690;1300;22583;-58
2024/03/20 08:12:47;;;;;;;452.10;55.90;;;;;;;13.99;59.89;101582.89;103231;1317;22685;-58
2024/03/20 08:15:13;;;;;;;377.30;50.00;;;;;;;14.80;59.56;101583.11;103107;1313;26204;-58
2024/03/20 08:17:38;;;;;;;286.90;52.30;;;;;;;15.17;55.33;101582.75;102990;1317;23941;-59
2024/03/20 08:20:09;;;;;;;411.60;57.00;;;;;;;15.17;57.96;101579.63;103231;1316;22848;-55
2024/03/20 08:22:35;;;;;;;291.90;51.90;;;;;;;14.92;56.11;101580.64;103204;1317;25340;-58
2024/03/20 08:25:00;;;;;;;375.80;53.60;;;;;;;15.00;56.43;101582.07;103060;1317;22771;-58
2024/03/20 08:27:26;;;;;;;537.90;68.50;;;;;;;15.04;54.52;101577.48;103278;1310;26277;-57
2024/03/20 08:29:54;;;;;;;427.40;56.30;;;;;;;15.26;55.97;101579.63;103359;1294;22673;-58
2024/03/20 08:32:21;;;;;;;470.70;61.50;;;;;;;16.03;57.71;101580.90;103684;1310;22914;-59
2024/03/20 08:34:46;;;;;;;469.20;66.60;;;;;;;16.96;55.48;101579.26;103231;1317;22824;-58
2024/03/20 08:37:12;;;;;;;549.90;65.20;;;;;;;17.31;52.51;101581.94;103085;1310;22598;-58
2024/03/20 08:39:37;;;;;;;505.40;51.40;;;;;;;16.60;52.77;101579.00;103069;1317;25952;-58
2024/03/20 08:42:03;;;;;;;252.40;46.90;;;;;;;15.92;53.45;101576.31;103058;1300;22605;-58
2024/03/20 08:44:28;;;;;;;366.80;48.50;;;;;;;15.71;49.87;101579.73;103172;1317;22561;-59
2024/03/20 08:46:54;;;;;;;542.10;51.40;;;;;;;15.47;49.69;101579.02;103086;1303;25775;-59
2024/03/20 08:49:19;;;;;;;140.70;33.60;;;;;;;15.18;50.13;101571.96;103244;1310;22585;-57
2024/03/20 08:51:44;;;;;;;257.40;43.20;;;;;;;15.19;51.23;101578.55;103061;1300;26017;-59
2024/03/20 08:54:11;;;;;;;394.40;49.30;;;;;;;15.30;50.57;101583.73;103027;1318;22623;-57
2024/03/20 08:56:38;;;;;;;361.40;43.40;;;;;;;15.51;49.84;101580.15;103296;1310;22707;-58
2024/03/20 08:59:03;;;;;;;246.20;47.20;;;;;;;16.05;50.60;101580.34;104247;1318;22577;-57
2024/03/20 09:01:29;;;;;;;481.20;51.70;;;;;;;16.61;48.42;101578.97;104694;1295;24285;-58
2024/03/20 09:03:54;;;;;;;290.60;43.90;;;;;;;16.86;48.89;101583.73;104679;1310;22558;-59
2024/03/20 09:06:19;;;;;;;315.40;45.20;;;;;;;16.48;48.84;101584.00;105169;1310;22621;-58
2024/03/20 09:08:45;;;;;;;168.50;39.30;;;;;;;15.96;46.88;101585.77;105053;1311;22559;-58
2024/03/20 09:11:11;;;;;;;278.00;39.40;;;;;;;15.55;48.74;101589.66;104442;1294;22718;-57
2024/03/20 09:13:38;;;;;;;366.00;49.00;;;;;;;15.89;48.21;101591.85;104318;1310;22571;-59
2024/03/20 09:16:04;;;;;;;354.10;43.10;;;;;;;16.52;47.96;101589.12;104673;1317;22583;-57
2024/03/20 09:18:30;;;;;;;167.30;39.00;;;;;;;16.83;45.80;101590.58;105229;1317;22821;-57
2024/03/20 09:20:56;;;;;;;361.80;52.00;;;;;;;16.40;45.22;101587.50;104510;1295;24172;-58
2024/03/20 09:23:23;;;;;;;246.50;38.30;;;;;;;16.15;46.06;101590.00;104877;1310;22609;-58
2024/03/20 09:25:49;;;;;;;206.30;38.90;;;;;;;16.03;44.84;101587.54;104365;1317;22563;-58
2024/03/20 09:28:15;;;;;;;229.60;37.10;;;;;;;15.81;45.19;101588.55;105134;1315;24251;-58
2024/03/20 09:30:40;;;;;;;135.80;33.60;;;;;;;16.06;45.94;101584.50;104129;1297;22654;-58
2024/03/20 09:33:06;;;;;;;295.90;39.10;;;;;;;16.60;45.10;101580.05;103437;1300;23982;-58
2024/03/20 09:35:32;;;;;;;292.50;43.20;;;;;;;17.04;43.68;101576.80;103484;1310;22655;-58
2024/03/20 09:37:57;;;;;;;319.90;44.50;;;;;;;17.15;44.09;101574.91;103442;1317;22688;-57
2024/03/20 09:40:24;;;;;;;231.10;35.70;;;;;;;17.56;42.02;101571.62;103363;1311;22895;-55
2024/03/20 09:42:54;;;;;;;371.80;49.40;;;;;;;17.61;41.92;101570.08;102978;1300;22621;-58
2024/03/20 09:45:21;;;;;;;275.90;36.30;;;;;;;17.96;42.50;101563.79;105076;1317;22569;-55
2024/03/20 09:47:51;;;;;;;230.30;36.10;;;;;;;17.51;41.35;101567.93;102979;1310;23935;-57
2024/03/20 09:50:18;;;;;;;130.30;36.00;;;;;;;16.71;42.58;101565.14;104267;1303;22597;-58
2024/03/20 09:52:44;;;;;;;137.90;32.40;;;;;;;16.08;42.99;101564.82;103041;1301;24295;-57
2024/03/20 09:55:17;;;;;;;193.90;33.80;;;;;;;16.19;43.17;101566.64;103080;1316;24387;-57
2024/03/20 09:57:44;;;;;;;201.00;38.10;;;;;;;17.19;42.69;101564.34;103170;1294;22578;-56
2024/03/20 10:00:16;;;;;;;291.70;39.40;;;;;;;18.21;41.93;101559.30;103223;1310;23389;-58
2024/03/20 10:02:46;;;;;;;245.10;38.40;;;;;;;18.62;40.45;101555.52;105021;1294;22570;-56
2024/03/20 10:05:15;;;;;;;199.00;37.10;;;;;;;18.67;40.66;101555.84;103182;1304;25553;-57
2024/03/20 10:07:41;;;;;;;143.90;33.40;;;;;;;18.12;39.70;101553.98;103163;1310;24266;-56
2024/03/20 10:10:11;;;;;;;38.00;24.80;;;;;;;17.40;39.58;101552.56;103742;1317;22618;-57
2024/03/20 10:12:39;;;;;;;130.90;32.10;;;;;;;16.63;39.94;101551.23;103931;1300;23121;-56
2024/03/20 10:15:07;;;;;;;;;;;;;;;16.18;41.02;101551.17;103074;1310;22547;-58
2024/03/20 10:17:34;;;;;;;22.10;18.10;;;;;;;16.30;42.59;101546.14;103044;1317;22797;-58
2024/03/20 10:20:14;;;;;;;67.40;24.60;;;;;;;16.69;40.76;101549.18;103186;1310;22692;-57
2024/03/20 10:22:40;;;;;;;52.20;21.90;;;;;;;16.55;40.43;101543.96;103295;1300;22596;-57
2024/03/20 10:25:08;;;;;;;245.40;35.90;;;;;;;16.68;40.55;101540.64;103113;1311;23235;-60
2024/03/20 10:27:39;;;;;;;160.10;37.30;;;;;;;17.44;38.29;101534.84;103383;1306;22638;-58
2024/03/20 10:30:11;;;;;;;210.30;35.90;;;;;;;17.42;36.87;101534.38;103134;1318;24996;-57
2024/03/20 10:32:38;;;;;;;224.40;39.30;;;;;;;17.96;38.73;101526.96;103908;1298;22607;-58
2024/03/20 10:35:05;;;;;;;140.20;31.20;;;;;;;18.90;39.39;101521.09;103071;1310;23795;-58
2024/03/20 10:37:32;;;;;;;274.70;36.40;;;;;;;19.54;36.95;101528.87;103649;1316;25588;-58
2024/03/20 10:39:58;;;;;;;;;;;;;;;19.43;34.59;101523.16;103888;1310;22573;-57
2024/03/20 10:42:24;;;;;;;;;;;;;;;18.99;34.37;101517.47;104211;1294;22554;-59
2024/03/20 10:44:51;;;;;;;355.30;47.20;;;;;;;18.23;36.61;101520.45;103168;1317;23706;-57
2024/03/20 10:47:18;;;;;;;208.50;41.40;;;;;;;18.01;37.78;101521.22;103167;1310;22591;-56
2024/03/20 10:49:43;;;;;;;330.50;45.80;;;;;;;18.46;38.07;101517.10;103386;1317;25415;-59
2024/03/20 10:52:11;;;;;;;222.40;41.00;;;;;;;18.96;37.07;101514.45;103246;1313;22589;-58
2024/03/20 10:54:36;;;;;;;239.20;40.90;;;;;;;19.59;38.17;101514.31;103489;1294;22567;-58
2024/03/20 10:57:05;;;;;;;321.30;48.30;;;;;;;20.42;39.09;101510.37;103188;1317;26583;-57